createdAt,value
2019-05-13T00:03:54.075Z,3.60
2019-05-13T00:08:54.365Z,3.90
2019-05-13T00:10:54.176Z,4.10
2019-05-13T00:16:53.666Z,4.40
2019-05-13T00:17:54.357Z,4.40
2019-05-13T00:18:53.492Z,4.20
2019-05-13T00:19:53.286Z,3.90
2019-05-13T00:20:54.205Z,4.00
2019-05-13T00:21:55.638Z,3.80
2019-05-13T00:22:53.823Z,4.20
2019-05-13T00:23:53.440Z,3.80
2019-05-13T00:24:54.251Z,4.10
2019-05-13T00:25:54.569Z,4.00
2019-05-13T00:26:53.228Z,3.80
2019-05-13T00:27:53.693Z,4.00
2019-05-13T00:32:55.935Z,4.60
2019-05-13T00:33:53.305Z,4.50
2019-05-13T00:34:53.457Z,3.40
2019-05-13T00:35:53.459Z,3.90
2019-05-13T00:37:07.316Z,4.30
2019-05-13T00:37:54.253Z,4.00
2019-05-13T00:38:53.526Z,4.00
2019-05-13T00:39:54.287Z,3.90
2019-05-13T00:40:54.531Z,4.00
2019-05-13T00:41:53.352Z,3.90
2019-05-13T00:42:54.550Z,3.70
2019-05-13T00:43:53.406Z,3.60
2019-05-13T00:44:53.432Z,3.80
2019-05-13T00:47:54.725Z,3.90
2019-05-13T00:48:54.211Z,3.70
2019-05-13T00:49:54.140Z,3.20
2019-05-13T00:51:53.618Z,3.30
2019-05-13T00:52:53.730Z,3.70
2019-05-13T01:04:41.295Z,3.30
2019-05-13T01:05:41.321Z,3.50
2019-05-13T01:06:43.384Z,3.40
2019-05-13T01:09:41.427Z,4.00
2019-05-13T01:12:43.818Z,3.50
2019-05-13T01:13:43.343Z,3.10
2019-05-13T01:14:43.205Z,2.80
2019-05-13T01:15:44.231Z,3.10
2019-05-13T01:16:44.081Z,3.00
2019-05-13T01:18:15.053Z,3.70
2019-05-13T01:18:43.219Z,3.70
2019-05-13T01:19:43.350Z,3.40
2019-05-13T01:20:43.697Z,3.40
2019-05-13T01:21:43.440Z,3.40
2019-05-13T01:23:43.824Z,3.70
2019-05-13T01:24:43.651Z,3.60
2019-05-13T01:26:44.502Z,3.50
2019-05-13T01:27:44.197Z,3.90
2019-05-13T01:30:43.803Z,3.80
2019-05-13T01:32:54.622Z,3.20
2019-05-13T01:33:56.266Z,3.40
2019-05-13T01:37:09.359Z,3.60
2019-05-13T01:41:54.860Z,4.30
2019-05-13T01:42:54.884Z,4.00
2019-05-13T01:43:58.140Z,4.20
2019-05-13T01:44:55.891Z,4.00
2019-05-13T01:47:55.219Z,3.60
2019-05-13T01:48:57.666Z,3.80
2019-05-13T01:49:55.474Z,4.10
2019-05-13T01:55:03.841Z,3.90
2019-05-13T01:59:55.332Z,3.60
2019-05-13T02:00:55.525Z,3.30
2019-05-13T02:01:55.589Z,3.00
2019-05-13T02:04:55.668Z,3.40
2019-05-13T02:08:18.558Z,3.50
2019-05-13T02:09:18.180Z,3.70
2019-05-13T02:11:43.872Z,3.60
2019-05-13T02:12:40.869Z,3.40
2019-05-13T02:13:40.895Z,3.90
2019-05-13T02:14:40.920Z,3.30
2019-05-13T02:15:40.979Z,3.30
2019-05-13T02:17:28.526Z,3.50
2019-05-13T02:18:28.552Z,3.60
2019-05-13T02:19:28.578Z,2.80
2019-05-13T02:20:28.604Z,2.70
2019-05-13T02:21:28.630Z,3.00
2019-05-13T02:55:27.743Z,3.10
2019-05-13T02:56:27.765Z,3.30
2019-05-13T02:58:27.816Z,3.40
2019-05-13T02:59:27.842Z,3.00
2019-05-13T03:00:32.877Z,3.70
2019-05-13T03:01:27.893Z,3.50
2019-05-13T03:02:27.923Z,3.30
2019-05-13T03:03:27.972Z,3.30
2019-05-13T03:04:27.972Z,2.90
2019-05-13T03:05:27.997Z,3.00
2019-05-13T03:06:32.813Z,3.30
2019-05-13T03:07:28.253Z,3.20
2019-05-13T03:08:44.658Z,3.60
2019-05-13T03:11:42.327Z,3.10
2019-05-13T03:12:43.386Z,3.30
2019-05-13T03:14:47.496Z,3.30
2019-05-13T03:15:42.820Z,3.30
2019-05-13T03:16:42.795Z,3.40
2019-05-13T03:17:43.233Z,3.20
2019-05-13T03:19:24.270Z,3.70
2019-05-13T03:21:23.139Z,3.30
2019-05-13T03:23:13.857Z,3.60
2019-05-13T03:24:16.299Z,3.70
2019-05-13T03:26:14.539Z,3.40
2019-05-13T03:27:20.341Z,4.30
2019-05-13T03:30:16.419Z,3.80
2019-05-13T03:31:16.877Z,3.50
2019-05-13T03:32:16.027Z,3.80
2019-05-13T03:33:19.345Z,3.70
2019-05-13T03:35:16.469Z,3.70
2019-05-13T03:38:28.471Z,3.80
2019-05-13T03:39:22.533Z,4.10
2019-05-13T03:40:23.165Z,4.20
2019-05-13T03:41:22.824Z,4.10
2019-05-13T03:42:24.514Z,3.30
2019-05-13T03:44:23.650Z,3.80
2019-05-13T03:46:22.977Z,3.50
2019-05-13T03:47:23.075Z,3.10
2019-05-13T03:48:23.551Z,3.70
2019-05-13T03:49:24.696Z,3.70
2019-05-13T04:18:42.511Z,3.50
2019-05-13T04:20:42.322Z,3.40
2019-05-13T04:21:42.899Z,3.40
2019-05-13T04:22:42.508Z,3.50
2019-05-13T04:23:42.573Z,3.40
2019-05-13T04:24:42.735Z,3.40
2019-05-13T04:25:44.458Z,3.50
2019-05-13T04:26:43.220Z,3.50
2019-05-13T04:27:42.856Z,3.50
2019-05-13T04:28:43.093Z,3.60
2019-05-13T04:29:42.924Z,3.60
2019-05-13T04:30:43.473Z,3.60
2019-05-13T04:31:42.424Z,3.70
2019-05-13T04:32:43.876Z,4.10
2019-05-13T04:33:42.723Z,3.60
2019-05-13T04:34:42.496Z,3.70
2019-05-13T04:35:42.578Z,3.50
2019-05-13T04:36:43.108Z,3.30
2019-05-13T04:37:42.982Z,3.80
2019-05-13T04:38:43.733Z,4.20
2019-05-13T04:39:50.109Z,3.70
2019-05-13T04:40:42.464Z,3.50
2019-05-13T04:41:42.407Z,4.00
2019-05-13T04:42:42.685Z,3.70
2019-05-13T04:43:43.442Z,4.30
2019-05-13T04:44:42.757Z,3.80
2019-05-13T04:45:42.987Z,4.10
2019-05-13T04:46:43.419Z,3.80
2019-05-13T04:47:43.184Z,4.00
2019-05-13T04:48:44.288Z,4.30
2019-05-13T04:49:42.835Z,4.00
2019-05-13T04:50:43.154Z,4.40
2019-05-13T04:51:42.128Z,3.90
2019-05-13T04:52:42.358Z,3.30
2019-05-13T04:53:42.388Z,3.70
2019-05-13T04:54:43.540Z,4.00
2019-05-13T04:55:42.776Z,4.60
2019-05-13T04:56:42.207Z,5.80
2019-05-13T04:57:42.410Z,5.00
2019-05-13T04:58:42.765Z,4.70
2019-05-13T04:59:44.331Z,5.10
2019-05-13T05:00:42.651Z,5.50
2019-05-13T05:01:52.160Z,5.60
2019-05-13T05:02:49.069Z,5.50
2019-05-13T05:03:45.736Z,5.90
2019-05-13T05:04:43.565Z,6.30
2019-05-13T05:05:42.006Z,6.30
2019-05-13T05:06:42.433Z,6.70
2019-05-13T05:07:42.013Z,7.40
2019-05-13T05:08:42.155Z,8.10
2019-05-13T05:10:02.828Z,8.50
2019-05-13T05:10:42.916Z,8.50
2019-05-13T05:11:42.594Z,9.40
2019-05-13T05:12:42.562Z,8.90
2019-05-13T05:13:42.827Z,10.00
2019-05-13T05:14:41.852Z,10.80
2019-05-13T05:15:41.828Z,11.10
2019-05-13T05:16:44.687Z,10.20
2019-05-13T05:17:42.981Z,9.50
2019-05-13T05:18:42.226Z,8.50
2019-05-13T05:19:44.909Z,8.60
2019-05-13T05:20:41.723Z,7.80
2019-05-13T05:21:41.773Z,8.00
2019-05-13T05:22:42.033Z,8.20
2019-05-13T05:23:42.259Z,7.30
2019-05-13T05:24:41.531Z,7.80
2019-05-13T05:25:41.734Z,7.00
2019-05-13T05:26:42.050Z,7.00
2019-05-13T05:27:42.083Z,6.70
2019-05-13T05:28:41.654Z,6.40
2019-05-13T05:29:42.199Z,6.30
2019-05-13T05:30:42.020Z,6.30
2019-05-13T05:31:41.718Z,6.20
2019-05-13T05:32:42.170Z,5.40
2019-05-13T05:33:41.775Z,5.60
2019-05-13T05:34:42.008Z,5.80
2019-05-13T05:35:42.716Z,5.90
2019-05-13T05:36:41.853Z,5.80
2019-05-13T05:37:41.877Z,5.00
2019-05-13T05:38:43.276Z,5.40
2019-05-13T05:39:42.092Z,5.90
2019-05-13T05:40:42.632Z,6.00
2019-05-13T05:41:42.274Z,5.30
2019-05-13T05:42:42.013Z,5.20
2019-05-13T05:43:45.214Z,5.40
2019-05-13T05:44:42.256Z,5.50
2019-05-13T05:45:42.094Z,5.50
2019-05-13T05:46:42.885Z,5.10
2019-05-13T05:47:42.148Z,5.50
2019-05-13T05:48:42.177Z,5.30
2019-05-13T05:49:42.202Z,5.40
2019-05-13T05:50:42.485Z,5.70
2019-05-13T05:51:42.257Z,4.60
2019-05-13T05:52:42.293Z,5.00
2019-05-13T05:53:42.392Z,5.10
2019-05-13T05:54:42.389Z,4.70
2019-05-13T05:55:42.367Z,4.70
2019-05-13T05:56:42.396Z,4.50
2019-05-13T05:57:42.431Z,4.20
2019-05-13T05:58:42.450Z,4.30
2019-05-13T05:59:42.845Z,4.60
2019-05-13T06:00:42.508Z,4.00
2019-05-13T06:01:42.536Z,3.60
2019-05-13T06:02:42.791Z,4.10
2019-05-13T06:03:42.589Z,3.80
2019-05-13T06:04:43.239Z,4.00
2019-05-13T06:05:42.644Z,3.90
2019-05-13T06:06:42.670Z,4.00
2019-05-13T06:07:42.700Z,3.50
2019-05-13T06:08:42.727Z,4.00
2019-05-13T06:09:42.754Z,3.90
2019-05-13T06:10:49.893Z,3.20
2019-05-13T06:11:42.814Z,3.00
2019-05-13T06:12:42.840Z,3.20
2019-05-13T06:13:42.867Z,2.90
2019-05-13T06:14:42.896Z,2.50
2019-05-13T06:15:42.928Z,3.50
2019-05-13T06:16:42.958Z,3.10
2019-05-13T06:17:42.978Z,2.40
2019-05-13T06:18:43.009Z,2.50
2019-05-13T06:19:43.035Z,2.70
2019-05-13T06:20:43.063Z,2.70
2019-05-13T06:21:43.093Z,3.10
2019-05-13T06:22:43.119Z,2.20
2019-05-13T06:23:43.152Z,2.70
2019-05-13T06:24:43.176Z,3.30
2019-05-13T06:25:43.204Z,2.60
2019-05-13T06:26:43.234Z,2.80
2019-05-13T06:27:43.261Z,2.40
2019-05-13T06:28:43.301Z,2.60
2019-05-13T06:33:01.767Z,2.30
2019-05-13T06:34:02.184Z,2.30
2019-05-13T06:35:02.570Z,1.90
2019-05-13T06:36:01.843Z,2.20
2019-05-13T06:37:02.184Z,2.00
2019-05-13T06:38:01.901Z,1.70
2019-05-13T06:39:02.421Z,2.30
2019-05-13T06:40:02.276Z,2.30
2019-05-13T06:41:06.745Z,1.70
2019-05-13T06:42:03.023Z,2.30
2019-05-13T06:43:02.045Z,2.30
2019-05-13T06:44:02.704Z,1.80
2019-05-13T06:45:02.401Z,2.00
2019-05-13T06:46:02.136Z,2.10
2019-05-13T06:47:02.865Z,2.20
2019-05-13T06:48:02.531Z,1.90
2019-05-13T06:49:02.862Z,2.20
2019-05-13T06:50:03.307Z,1.70
2019-05-13T06:51:02.639Z,1.80
2019-05-13T06:52:02.333Z,2.00
2019-05-13T06:53:02.467Z,1.90
2019-05-13T06:54:02.535Z,1.90
2019-05-13T06:55:02.897Z,1.90
2019-05-13T06:56:02.425Z,1.90
2019-05-13T06:57:05.088Z,1.80
2019-05-13T06:58:02.489Z,1.90
2019-05-13T06:59:02.515Z,2.00
2019-05-13T07:00:02.543Z,2.00
2019-05-13T07:01:04.031Z,2.50
2019-05-13T07:02:02.610Z,1.70
2019-05-13T07:03:02.642Z,2.10
2019-05-13T07:04:02.664Z,2.20
2019-05-13T07:05:02.693Z,2.10
2019-05-13T07:06:02.728Z,2.30
2019-05-13T07:07:12.211Z,2.20
2019-05-13T07:08:02.785Z,2.60
2019-05-13T07:09:02.814Z,2.60
2019-05-13T07:10:02.863Z,2.70
2019-05-13T07:11:16.844Z,2.50
2019-05-13T07:12:03.620Z,2.10
2019-05-13T07:13:02.936Z,2.20
2019-05-13T07:14:02.977Z,2.70
2019-05-13T07:15:02.997Z,2.70
2019-05-13T07:16:03.024Z,2.50
2019-05-13T07:17:03.063Z,2.60
2019-05-13T07:18:03.088Z,2.20
2019-05-13T07:19:03.117Z,2.60
2019-05-13T07:20:03.146Z,2.30
2019-05-13T07:21:03.179Z,2.20
2019-05-13T07:22:03.366Z,2.50
2019-05-13T07:23:03.240Z,3.00
2019-05-13T07:24:03.268Z,2.80
2019-05-13T07:25:03.299Z,2.50
2019-05-13T07:26:03.329Z,2.70
2019-05-13T07:27:03.359Z,2.60
2019-05-13T07:28:03.390Z,2.80
2019-05-13T07:29:04.261Z,3.00
2019-05-13T07:30:03.451Z,2.80
2019-05-13T07:31:03.482Z,3.10
2019-05-13T07:32:03.510Z,2.90
2019-05-13T07:33:03.541Z,2.70
2019-05-13T07:34:03.573Z,2.80
2019-05-13T07:35:04.332Z,3.00
2019-05-13T07:36:03.934Z,3.10
2019-05-13T07:38:03.694Z,3.20
2019-05-13T07:39:03.725Z,3.20
2019-05-13T07:40:03.754Z,2.70
2019-05-13T07:41:03.791Z,3.60
2019-05-13T07:42:05.814Z,2.90
2019-05-13T07:43:03.848Z,2.70
2019-05-13T07:44:03.876Z,3.00
2019-05-13T07:45:03.907Z,3.00
2019-05-13T07:46:03.938Z,3.20
2019-05-13T07:47:04.013Z,3.40
2019-05-13T07:48:19.186Z,2.70
2019-05-13T07:49:04.031Z,3.10
2019-05-13T07:50:04.060Z,3.10
2019-05-13T07:51:04.870Z,2.80
2019-05-13T07:52:04.119Z,2.80
2019-05-13T07:53:04.152Z,2.90
2019-05-13T07:54:04.181Z,3.40
2019-05-13T07:55:04.214Z,3.00
2019-05-13T07:56:04.252Z,3.20
2019-05-13T07:57:04.278Z,3.50
2019-05-13T07:58:04.302Z,3.20
2019-05-13T07:59:04.332Z,2.90
2019-05-13T08:00:04.362Z,3.30
2019-05-13T08:01:04.414Z,3.10
2019-05-13T08:02:04.478Z,3.30
2019-05-13T08:03:04.465Z,3.90
2019-05-13T08:04:04.485Z,3.60
2019-05-13T08:05:04.516Z,3.10
2019-05-13T08:06:04.546Z,3.30
2019-05-13T08:07:04.578Z,3.40
2019-05-13T08:08:04.607Z,3.40
2019-05-13T08:09:04.638Z,3.00
2019-05-13T08:10:04.669Z,3.20
2019-05-13T08:11:04.699Z,3.00
2019-05-13T08:12:10.458Z,3.20
2019-05-13T08:13:04.760Z,3.00
2019-05-13T08:14:04.791Z,3.00
2019-05-13T08:15:04.823Z,3.30
2019-05-13T08:16:04.903Z,3.30
2019-05-13T08:17:04.885Z,3.10
2019-05-13T08:18:04.916Z,3.10
2019-05-13T08:19:04.945Z,3.60
2019-05-13T08:20:04.976Z,2.90
2019-05-13T08:21:05.008Z,2.80
2019-05-13T08:22:05.040Z,2.70
2019-05-13T08:24:05.105Z,2.90
2019-05-13T08:28:05.248Z,2.50
2019-05-13T08:29:06.072Z,2.70
2019-05-13T08:33:05.620Z,2.50
2019-05-13T08:45:42.250Z,2.30
2019-05-13T08:46:41.656Z,2.10
2019-05-13T08:47:42.057Z,2.20
2019-05-13T08:48:42.901Z,2.20
2019-05-13T08:49:41.666Z,2.70
2019-05-13T08:50:42.021Z,2.70
2019-05-13T08:51:42.281Z,2.40
2019-05-13T08:52:42.364Z,2.40
2019-05-13T08:53:42.469Z,2.20
2019-05-13T08:54:42.070Z,2.30
2019-05-13T08:55:42.617Z,2.10
2019-05-13T08:56:41.911Z,2.30
2019-05-13T08:57:42.073Z,2.40
2019-05-13T08:58:41.847Z,2.30
2019-05-13T09:00:41.916Z,1.80
2019-05-13T09:01:42.863Z,2.30
2019-05-13T09:02:42.194Z,2.30
2019-05-13T09:03:42.009Z,1.90
2019-05-13T09:04:42.457Z,2.30
2019-05-13T09:05:42.077Z,2.30
2019-05-13T09:06:42.131Z,2.10
2019-05-13T09:07:42.141Z,2.30
2019-05-13T09:08:42.588Z,2.20
2019-05-13T09:10:42.242Z,2.20
2019-05-13T09:11:42.398Z,2.70
2019-05-13T09:12:43.367Z,2.20
2019-05-13T09:13:42.492Z,2.30
2019-05-13T09:14:42.377Z,2.40
2019-05-13T09:15:42.413Z,2.20
2019-05-13T09:16:42.445Z,2.40
2019-05-13T09:17:42.625Z,2.00
2019-05-13T09:18:42.749Z,2.40
2019-05-13T09:19:42.547Z,2.40
2019-05-13T09:20:42.582Z,2.20
2019-05-13T09:22:42.671Z,2.20
2019-05-13T09:23:42.684Z,2.40
2019-05-13T09:24:42.862Z,2.10
2019-05-13T09:25:42.751Z,2.50
2019-05-13T09:26:42.788Z,2.30
2019-05-13T09:27:42.820Z,2.90
2019-05-13T09:28:42.853Z,2.50
2019-05-13T09:29:43.004Z,2.30
2019-05-13T09:30:42.924Z,2.40
2019-05-13T09:31:42.956Z,2.00
2019-05-13T09:32:42.992Z,2.10
2019-05-13T09:33:43.032Z,2.40
2019-05-13T09:34:43.060Z,1.80
2019-05-13T09:35:43.094Z,1.90
2019-05-13T09:36:43.128Z,2.10
2019-05-13T09:37:43.163Z,2.20
2019-05-13T09:38:43.198Z,2.10
2019-05-13T09:39:43.232Z,2.40
2019-05-13T09:40:43.265Z,2.30
2019-05-13T09:41:44.599Z,2.00
2019-05-13T09:42:49.118Z,2.50
2019-05-13T09:43:43.394Z,2.30
2019-05-13T09:44:43.429Z,2.20
2019-05-13T09:45:43.436Z,2.30
2019-05-13T09:46:43.471Z,2.20
2019-05-13T09:47:43.506Z,2.30
2019-05-13T09:48:43.539Z,1.80
2019-05-13T09:49:43.578Z,2.30
2019-05-13T09:50:43.607Z,2.00
2019-05-13T09:51:43.642Z,1.90
2019-05-13T09:52:43.706Z,2.20
2019-05-13T09:53:43.710Z,2.00
2019-05-13T09:54:43.766Z,1.90
2019-05-13T09:55:43.800Z,2.20
2019-05-13T09:57:43.846Z,2.40
2019-05-13T09:58:44.084Z,2.00
2019-05-13T09:59:43.939Z,2.30
2019-05-13T10:00:43.949Z,2.20
2019-05-13T10:01:44.187Z,2.00
2019-05-13T10:04:02.946Z,2.20
2019-05-13T10:05:02.419Z,1.80
2019-05-13T10:06:02.628Z,1.70
2019-05-13T10:07:02.598Z,1.90
2019-05-13T10:08:02.563Z,1.80
2019-05-13T10:09:02.436Z,1.80
2019-05-13T10:10:02.037Z,1.80
2019-05-13T10:11:01.921Z,1.90
2019-05-13T10:12:03.120Z,2.00
2019-05-13T10:13:11.384Z,1.60
2019-05-13T10:14:02.409Z,1.90
2019-05-13T10:15:02.480Z,1.70
2019-05-13T10:16:02.074Z,1.50
2019-05-13T10:17:06.138Z,2.00
2019-05-13T10:18:02.147Z,1.80
2019-05-13T10:19:02.775Z,1.90
2019-05-13T10:20:02.220Z,1.60
2019-05-13T10:21:02.260Z,1.70
2019-05-13T10:22:02.300Z,1.90
2019-05-13T10:23:02.356Z,1.90
2019-05-13T10:24:02.373Z,1.70
2019-05-13T10:25:02.798Z,1.80
2019-05-13T10:26:03.510Z,2.10
2019-05-13T10:27:02.751Z,1.70
2019-05-13T10:28:02.528Z,2.00
2019-05-13T10:29:02.560Z,1.90
2019-05-13T10:30:02.603Z,1.80
2019-05-13T10:31:02.802Z,1.70
2019-05-13T10:32:03.606Z,1.80
2019-05-13T10:33:03.019Z,1.80
2019-05-13T10:34:02.768Z,1.40
2019-05-13T10:35:03.580Z,1.20
2019-05-13T10:36:03.855Z,1.30
2019-05-13T10:37:02.873Z,1.40
2019-05-13T10:38:04.466Z,1.30
2019-05-13T10:39:02.935Z,1.70
2019-05-13T10:40:02.972Z,1.30
2019-05-13T10:41:03.729Z,1.70
2019-05-13T10:42:03.873Z,1.40
2019-05-13T10:43:03.088Z,1.30
2019-05-13T10:44:03.319Z,1.20
2019-05-13T10:45:03.165Z,1.70
2019-05-13T10:46:03.220Z,1.30
2019-05-13T10:47:03.235Z,1.30
2019-05-13T10:48:03.274Z,1.50
2019-05-13T10:49:03.310Z,1.30
2019-05-13T10:50:03.346Z,1.50
2019-05-13T10:51:03.383Z,1.40
2019-05-13T10:52:03.504Z,1.50
2019-05-13T10:53:03.457Z,1.50
2019-05-13T10:54:03.496Z,1.80
2019-05-13T10:55:03.550Z,4.20
2019-05-13T10:56:03.724Z,1.50
2019-05-13T10:57:04.251Z,1.30
2019-05-13T10:58:03.643Z,1.20
2019-05-13T10:59:03.679Z,1.30
2019-05-13T11:00:03.715Z,1.30
2019-05-13T11:01:03.755Z,1.20
2019-05-13T11:02:03.793Z,1.30
2019-05-13T11:03:46.383Z,1.10
2019-05-13T11:04:46.423Z,1.30
2019-05-13T11:05:46.465Z,1.40
2019-05-13T11:06:46.504Z,1.30
2019-05-13T11:07:46.546Z,1.40
2019-05-13T11:08:46.585Z,1.30
2019-05-13T11:09:46.626Z,1.30
2019-05-13T11:10:46.668Z,1.10
2019-05-13T11:11:46.710Z,1.40
2019-05-13T11:15:46.875Z,1.50
2019-05-13T11:16:46.918Z,1.20
2019-05-13T11:17:46.959Z,1.20
2019-05-13T11:18:47.001Z,1.50
2019-05-13T11:19:47.041Z,1.50
2019-05-13T11:20:47.081Z,1.50
2019-05-13T11:21:50.666Z,1.30
2019-05-13T11:22:47.162Z,1.40
2019-05-13T11:23:47.203Z,1.10
2019-05-13T11:24:47.245Z,1.30
2019-05-13T11:25:47.284Z,1.20
2019-05-13T11:26:47.323Z,1.20
2019-05-13T11:27:47.366Z,1.30
2019-05-13T11:28:47.405Z,1.30
2019-05-13T11:29:47.467Z,1.40
2019-05-13T11:30:47.484Z,1.30
2019-05-13T11:31:47.522Z,1.20
2019-05-13T11:32:47.565Z,1.50
2019-05-13T11:33:47.604Z,1.40
2019-05-13T11:34:47.641Z,1.30
2019-05-13T11:35:47.682Z,1.50
2019-05-13T11:36:47.720Z,1.20
2019-05-13T11:37:47.760Z,1.50
2019-05-13T11:38:47.798Z,1.10
2019-05-13T11:39:47.837Z,1.40
2019-05-13T11:40:47.877Z,1.30
2019-05-13T11:41:47.917Z,1.40
2019-05-13T11:42:47.954Z,1.30
2019-05-13T11:44:08.026Z,1.60
2019-05-13T11:44:48.367Z,1.30
2019-05-13T11:45:48.085Z,1.30
2019-05-13T11:46:48.119Z,1.30
2019-05-13T11:47:48.155Z,1.30
2019-05-13T11:48:48.196Z,1.30
2019-05-13T11:49:48.239Z,1.50
2019-05-13T11:50:50.478Z,1.40
2019-05-13T11:51:48.322Z,1.50
2019-05-13T11:52:48.365Z,1.40
2019-05-13T11:53:48.408Z,1.60
2019-05-13T11:54:48.450Z,1.50
2019-05-13T11:55:48.493Z,1.30
2019-05-13T11:56:52.240Z,1.40
2019-05-13T11:57:48.581Z,1.30
2019-05-13T11:58:48.633Z,1.60
2019-05-13T11:59:48.665Z,1.60
2019-05-13T12:00:52.752Z,1.40
2019-05-13T12:01:48.751Z,1.00
2019-05-13T12:02:53.824Z,1.30
2019-05-13T12:03:48.836Z,1.10
2019-05-13T12:04:48.879Z,1.40
2019-05-13T12:05:48.923Z,1.20
2019-05-13T12:06:54.016Z,1.40
2019-05-13T12:07:49.006Z,1.40
2019-05-13T12:08:53.270Z,1.40
2019-05-13T12:09:49.091Z,1.30
2019-05-13T12:10:51.147Z,1.40
2019-05-13T12:11:49.175Z,1.30
2019-05-13T12:12:49.216Z,1.60
2019-05-13T12:13:52.517Z,1.30
2019-05-13T12:15:50.035Z,1.20
2019-05-13T12:16:49.390Z,1.30
2019-05-13T12:17:52.351Z,1.20
2019-05-13T12:18:52.515Z,1.20
2019-05-13T12:19:49.511Z,1.40
2019-05-13T12:20:53.588Z,1.30
2019-05-13T12:21:53.659Z,1.20
2019-05-13T12:22:52.270Z,1.10
2019-05-13T12:23:52.662Z,1.20
2019-05-13T12:24:51.567Z,1.30
2019-05-13T12:25:52.564Z,1.00
2019-05-13T12:27:51.923Z,1.20
2019-05-13T12:28:53.714Z,1.60
2019-05-13T12:29:52.846Z,1.40
2019-05-13T12:30:52.806Z,1.30
2019-05-13T12:31:53.693Z,1.20
2019-05-13T12:32:51.856Z,1.30
2019-05-13T12:33:52.289Z,1.50
2019-05-13T12:34:52.670Z,1.40
2019-05-13T12:35:53.180Z,1.40
2019-05-13T12:36:50.350Z,1.40
2019-05-13T12:37:53.360Z,1.30
2019-05-13T12:38:53.510Z,1.30
2019-05-13T12:39:53.003Z,1.30
2019-05-13T12:40:52.911Z,1.10
2019-05-13T12:41:53.891Z,1.40
2019-05-13T12:42:53.863Z,1.10
2019-05-13T12:43:54.028Z,1.30
2019-05-13T12:45:01.923Z,1.10
2019-05-13T12:45:53.247Z,1.40
2019-05-13T12:46:54.067Z,1.40
2019-05-13T12:47:53.081Z,1.30
2019-05-13T12:48:50.865Z,1.40
2019-05-13T12:49:50.938Z,1.50
2019-05-13T12:50:54.105Z,1.30
2019-05-13T12:51:51.785Z,1.40
2019-05-13T12:52:51.581Z,1.40
2019-05-13T12:53:52.799Z,1.30
2019-05-13T12:54:52.863Z,1.20
2019-05-13T12:55:55.651Z,1.30
2019-05-13T12:56:52.427Z,1.40
2019-05-13T12:57:52.657Z,1.30
2019-05-13T12:58:52.233Z,1.20
2019-05-13T12:59:51.388Z,1.10
2019-05-13T13:00:53.295Z,1.20
2019-05-13T13:01:52.630Z,1.30
2019-05-13T13:02:52.055Z,1.00
2019-05-13T13:03:51.580Z,1.20
2019-05-13T13:05:08.738Z,1.00
2019-05-13T13:05:51.679Z,1.20
2019-05-13T13:06:53.196Z,1.50
2019-05-13T13:08:16.641Z,1.20
2019-05-13T13:08:51.842Z,1.20
2019-05-13T13:09:53.486Z,1.10
2019-05-13T13:10:53.202Z,1.00
2019-05-13T13:12:54.610Z,1.30
2019-05-13T13:13:58.819Z,1.10
2019-05-13T13:14:54.573Z,1.40
2019-05-13T13:16:53.977Z,1.30
2019-05-13T13:17:53.954Z,1.20
2019-05-13T13:18:52.694Z,1.20
2019-05-13T13:19:54.771Z,1.00
2019-05-13T13:21:00.263Z,1.10
2019-05-13T13:21:53.412Z,1.30
2019-05-13T13:22:52.491Z,1.10
2019-05-13T13:23:52.539Z,1.10
2019-05-13T13:24:57.095Z,1.30
2019-05-13T13:25:56.840Z,1.10
2019-05-13T13:26:53.706Z,1.60
2019-05-13T13:28:10.780Z,1.10
2019-05-13T13:28:55.665Z,1.20
2019-05-13T13:30:02.714Z,1.00
2019-05-13T13:30:53.304Z,1.20
2019-05-13T13:31:55.509Z,1.20
2019-05-13T13:32:54.794Z,1.30
2019-05-13T13:33:55.163Z,1.30
2019-05-13T13:34:54.624Z,1.50
2019-05-13T13:35:58.795Z,1.30
2019-05-13T13:36:53.341Z,1.60
2019-05-13T13:37:53.273Z,1.10
2019-05-13T13:39:55.108Z,1.30
2019-05-13T13:40:54.054Z,1.60
2019-05-13T13:41:53.771Z,1.50
2019-05-13T13:42:53.406Z,1.40
2019-05-13T13:43:54.038Z,1.40
2019-05-13T13:44:54.128Z,1.60
2019-05-13T13:46:07.516Z,1.70
2019-05-13T13:46:54.795Z,1.30
2019-05-13T13:48:03.159Z,1.70
2019-05-13T13:48:55.485Z,1.60
2019-05-13T13:49:53.725Z,1.60
2019-05-13T13:50:55.751Z,1.20
2019-05-13T13:51:53.813Z,1.10
2019-05-13T13:52:53.907Z,1.50
2019-05-13T13:53:56.523Z,1.50
2019-05-13T13:55:02.864Z,1.40
2019-05-13T13:55:55.957Z,1.50
2019-05-13T13:56:56.058Z,1.30
2019-05-13T13:57:56.756Z,1.50
2019-05-13T13:58:54.222Z,1.20
2019-05-13T14:00:20.804Z,1.20
2019-05-13T14:01:05.927Z,1.00
2019-05-13T14:01:55.260Z,1.30
2019-05-13T14:02:54.588Z,1.10
2019-05-13T14:03:54.371Z,1.40
2019-05-13T14:04:54.598Z,1.10
2019-05-13T14:05:54.546Z,1.10
2019-05-13T14:06:25.035Z,2.40
2019-05-13T14:06:32.042Z,1.10
2019-05-13T14:07:54.528Z,1.50
2019-05-13T14:08:54.573Z,1.30
2019-05-13T14:09:54.618Z,1.20
2019-05-13T14:10:54.662Z,1.40
2019-05-13T14:11:54.705Z,1.60
2019-05-13T14:12:54.750Z,1.30
2019-05-13T14:13:54.795Z,1.40
2019-05-13T14:14:54.838Z,1.20
2019-05-13T14:15:54.884Z,1.20
2019-05-13T14:16:54.931Z,1.50
2019-05-13T14:17:54.975Z,1.20
2019-05-13T14:18:55.025Z,1.00
2019-05-13T14:19:55.067Z,1.10
2019-05-13T14:20:55.114Z,1.20
2019-05-13T14:21:55.156Z,1.10
2019-05-13T14:22:58.069Z,1.30
2019-05-13T14:23:55.247Z,1.30
2019-05-13T14:24:55.292Z,1.20
2019-05-13T14:25:55.338Z,1.20
2019-05-13T14:26:55.383Z,1.20
2019-05-13T14:27:55.428Z,1.40
2019-05-13T14:28:55.477Z,1.40
2019-05-13T14:29:55.520Z,1.30
2019-05-13T14:30:55.566Z,1.40
2019-05-13T14:31:55.611Z,1.40
2019-05-13T14:32:55.658Z,1.30
2019-05-13T14:33:55.705Z,1.10
2019-05-13T14:34:55.750Z,1.40
2019-05-13T14:35:55.806Z,1.40
2019-05-13T14:36:55.844Z,1.50
2019-05-13T14:37:55.894Z,1.10
2019-05-13T14:38:55.954Z,1.30
2019-05-13T14:39:55.985Z,1.30
2019-05-13T14:40:56.032Z,1.50
2019-05-13T14:41:56.078Z,1.30
2019-05-13T14:42:56.127Z,1.30
2019-05-13T14:43:56.173Z,1.10
2019-05-13T14:44:56.220Z,1.40
2019-05-13T14:45:56.271Z,1.10
2019-05-13T14:46:56.315Z,1.40
2019-05-13T14:47:56.367Z,1.50
2019-05-13T14:48:56.411Z,1.40
2019-05-13T14:49:56.790Z,1.50
2019-05-13T14:50:58.999Z,1.30
2019-05-13T14:51:56.642Z,1.30
2019-05-13T14:52:56.606Z,1.10
2019-05-13T14:53:56.651Z,1.20
2019-05-13T14:54:56.697Z,1.10
2019-05-13T14:55:56.747Z,1.30
2019-05-13T14:56:56.792Z,1.40
2019-05-13T14:57:56.841Z,1.40
2019-05-13T14:58:56.887Z,1.40
2019-05-13T14:59:56.934Z,1.30
2019-05-13T15:01:11.248Z,1.40
2019-05-13T15:01:57.029Z,1.30
2019-05-13T15:02:57.077Z,1.40
2019-05-13T15:03:57.125Z,1.20
2019-05-13T15:04:57.172Z,1.50
2019-05-13T15:05:57.218Z,1.40
2019-05-13T15:06:57.265Z,1.20
2019-05-13T15:07:57.312Z,1.30
2019-05-13T15:08:57.360Z,1.50
2019-05-13T15:09:57.407Z,1.20
2019-05-13T15:10:57.451Z,1.30
2019-05-13T15:11:57.499Z,1.40
2019-05-13T15:12:57.545Z,1.50
2019-05-13T15:13:57.591Z,1.60
2019-05-13T15:14:57.636Z,1.50
2019-05-13T15:15:57.681Z,1.10
2019-05-13T15:17:03.112Z,1.40
2019-05-13T15:17:57.774Z,1.30
2019-05-13T15:18:57.819Z,1.20
2019-05-13T15:19:57.865Z,1.10
2019-05-13T15:20:57.910Z,1.10
2019-05-13T15:21:58.006Z,1.20
2019-05-13T15:22:58.002Z,1.30
2019-05-13T15:23:58.047Z,1.00
2019-05-13T15:24:58.094Z,1.30
2019-05-13T15:25:58.141Z,1.50
2019-05-13T15:26:58.185Z,1.00
2019-05-13T15:27:58.233Z,1.30
2019-05-13T15:29:01.680Z,1.10
2019-05-13T15:30:25.436Z,1.30
2019-05-13T15:30:58.370Z,1.30
2019-05-13T15:31:58.416Z,1.20
2019-05-13T15:32:58.462Z,1.00
2019-05-13T15:33:58.510Z,1.30
2019-05-13T15:34:58.553Z,1.20
2019-05-13T15:35:58.598Z,1.40
2019-05-13T15:36:58.642Z,1.20
2019-05-13T15:37:58.687Z,1.50
2019-05-13T15:39:01.222Z,1.20
2019-05-13T15:39:58.781Z,1.40
2019-05-13T15:40:58.818Z,1.20
2019-05-13T15:42:01.726Z,1.20
2019-05-13T15:42:59.439Z,1.20
2019-05-13T15:43:58.946Z,1.40
2019-05-13T15:45:01.600Z,1.10
2019-05-13T15:47:59.346Z,1.20
2019-05-13T15:49:01.701Z,1.40
2019-05-13T15:50:02.178Z,1.50
2019-05-13T15:51:01.524Z,1.30
2019-05-13T15:52:01.753Z,1.40
2019-05-13T15:54:02.417Z,1.60
2019-05-13T15:55:01.425Z,1.50
2019-05-13T15:55:59.495Z,1.10
2019-05-13T15:59:01.949Z,2.10
2019-05-13T16:00:01.901Z,1.60
2019-05-13T16:04:02.467Z,1.10
2019-05-13T16:05:02.323Z,1.20
2019-05-13T16:06:01.691Z,1.20
2019-05-13T16:07:01.680Z,1.50
2019-05-13T16:08:01.432Z,1.60
2019-05-13T16:09:02.805Z,1.70
2019-05-13T16:10:02.038Z,1.40
2019-05-13T16:11:02.162Z,1.70
2019-05-13T16:12:01.518Z,1.30
2019-05-13T16:13:02.192Z,1.40
2019-05-13T16:14:02.098Z,1.80
2019-05-13T16:15:01.951Z,1.70
2019-05-13T16:16:01.565Z,1.50
2019-05-13T16:17:00.397Z,1.50
2019-05-13T16:18:02.569Z,1.40
2019-05-13T16:19:00.484Z,1.70
2019-05-13T16:20:01.938Z,1.60
2019-05-13T16:21:01.548Z,1.30
2019-05-13T16:22:01.389Z,1.50
2019-05-13T16:23:02.346Z,1.30